Time;durP1;ratioP1;P1;durP2;ratioP2;P2;SDS_P1;SDS_P2;PMS_P1;PMS_P2;Temp;Humidity;BMP_temperature;BMP_pressure;BME280_temperature;BME280_humidity;BME280_pressure;Samples;Min_cycle;Max_cycle;Signal;HPM_P1;HPM_P2
2023/01/31 00:01:08;;;;;;;;;;;23.70;99.90;;;;;;5013618;28;19987;-64
2023/01/31 00:03:34;;;;;;;;;;;23.70;99.90;;;;;;5013202;28;19957;-65
2023/01/31 00:06:19;;;;;;;;;;;23.70;99.90;;;;;;5013803;28;20319;-65
2023/01/31 00:08:47;;;;;;;;;;;23.70;99.90;;;;;;5013492;28;19932;-65
2023/01/31 00:11:14;;;;;;;;;;;23.70;99.90;;;;;;5013293;28;20019;-62
2023/01/31 00:13:41;;;;;;;;;;;23.60;99.90;;;;;;5012889;28;20392;-63
2023/01/31 00:16:08;;;;;;;;;;;23.50;99.90;;;;;;5013520;28;19914;-65
2023/01/31 00:18:36;;;;;;;;;;;23.60;99.90;;;;;;5013475;28;19910;-65
2023/01/31 00:21:06;;;;;;;;;;;23.50;99.90;;;;;;5013183;28;19916;-63
2023/01/31 00:23:33;;;;;;;;;;;23.60;99.90;;;;;;5012852;28;19972;-63
2023/01/31 00:26:13;;;;;;;;;;;23.40;99.90;;;;;;5013167;28;19916;-62
2023/01/31 00:28:40;;;;;;;;;;;23.40;99.90;;;;;;5013041;28;19914;-62
2023/01/31 00:31:07;;;;;;;;;;;23.50;99.90;;;;;;5013150;28;20015;-68
2023/01/31 00:33:34;;;;;;;;;;;23.60;99.90;;;;;;5012536;28;20375;-62
2023/01/31 00:36:08;;;;;;;;;;;23.60;99.90;;;;;;5013092;28;19963;-62
2023/01/31 00:38:35;;;;;;;;;;;23.50;99.90;;;;;;5013236;28;20368;-61
2023/01/31 00:41:02;;;;;;;;;;;23.50;99.90;;;;;;5012505;28;19933;-67
2023/01/31 00:43:30;;;;;;;;;;;23.40;99.90;;;;;;5012211;28;19914;-63
2023/01/31 00:45:57;;;;;;;;;;;23.30;99.90;;;;;;5012731;28;19914;-66
2023/01/31 00:48:24;;;;;;;;;;;23.30;99.90;;;;;;5012655;28;20411;-67
2023/01/31 00:50:50;;;;;;;;;;;23.20;99.90;;;;;;5012776;28;19917;-64
2023/01/31 00:53:22;;;;;;;;;;;23.10;99.90;;;;;;5012655;28;19980;-63
2023/01/31 00:55:49;;;;;;;;;;;23.10;99.90;;;;;;5012836;28;19968;-62
2023/01/31 00:58:16;;;;;;;;;;;23.10;99.90;;;;;;5012680;28;20299;-63
2023/01/31 01:00:43;;;;;;;;;;;23.10;99.90;;;;;;5012670;28;19949;-61
2023/01/31 01:03:09;;;;;;;;;;;23.10;99.90;;;;;;5012965;28;19971;-61
2023/01/31 01:05:36;;;;;;;;;;;23.10;99.90;;;;;;5012405;28;20012;-61
2023/01/31 01:08:03;;;;;;;;;;;23.10;99.90;;;;;;5012582;28;19964;-65
2023/01/31 01:10:29;;;;;;;;;;;23.10;99.90;;;;;;5012693;28;19913;-64
2023/01/31 01:12:56;;;;;;;;;;;23.00;99.90;;;;;;5012551;28;19956;-61
2023/01/31 01:15:23;;;;;;;;;;;23.10;99.90;;;;;;5012041;28;19963;-62
2023/01/31 01:17:49;;;;;;;;;;;23.10;99.90;;;;;;5012432;28;20000;-67
2023/01/31 01:20:17;;;;;;;;;;;23.20;99.90;;;;;;5012638;28;20064;-62
2023/01/31 01:22:43;;;;;;;;;;;23.20;99.90;;;;;;5012298;28;19949;-63
2023/01/31 01:25:10;;;;;;;;;;;23.30;99.90;;;;;;5012136;28;19913;-63
2023/01/31 01:27:36;;;;;;;;;;;23.20;99.90;;;;;;5012025;28;19909;-65
2023/01/31 01:30:04;;;;;;;;;;;23.10;99.90;;;;;;5012247;28;19920;-64
2023/01/31 01:32:30;;;;;;;;;;;23.10;99.90;;;;;;5012306;28;20062;-66
2023/01/31 01:34:57;;;;;;;;;;;23.10;99.90;;;;;;5012016;28;19917;-64
2023/01/31 01:37:24;;;;;;;;;;;23.10;99.90;;;;;;5011835;28;20292;-62
2023/01/31 01:39:51;;;;;;;;;;;23.10;99.90;;;;;;5012413;28;19917;-63
2023/01/31 01:42:19;;;;;;;;;;;23.00;99.90;;;;;;5012044;28;19945;-66
2023/01/31 01:44:51;;;;;;;;;;;23.00;99.90;;;;;;5012004;28;19957;-61
2023/01/31 01:47:21;;;;;;;;;;;23.00;99.90;;;;;;5011926;28;20545;-67
2023/01/31 01:49:50;;;;;;;;;;;23.00;99.90;;;;;;5012164;28;19945;-65
2023/01/31 01:52:17;;;;;;;;;;;23.00;99.90;;;;;;5012071;28;19920;-68
2023/01/31 01:54:46;;;;;;;;;;;23.10;99.90;;;;;;5011684;28;19924;-69
2023/01/31 01:57:15;;;;;;;;;;;23.20;99.90;;;;;;5011769;28;20513;-63
2023/01/31 01:59:45;;;;;;;;;;;23.20;99.90;;;;;;5011842;28;19920;-63
2023/01/31 02:02:12;;;;;;;;;;;23.30;99.90;;;;;;5012067;28;19922;-64
2023/01/31 02:04:40;;;;;;;;;;;23.30;99.90;;;;;;5012008;28;19984;-62
2023/01/31 02:07:07;;;;;;;;;;;23.40;99.90;;;;;;5012074;28;20016;-63
2023/01/31 02:09:44;;;;;;;;;;;23.40;99.90;;;;;;5011554;28;19909;-61
2023/01/31 02:12:11;;;;;;;;;;;23.50;99.90;;;;;;5012012;28;20351;-64
2023/01/31 02:14:38;;;;;;;;;;;23.50;99.90;;;;;;5011519;28;19924;-61
2023/01/31 02:17:05;;;;;;;;;;;23.50;99.90;;;;;;5011923;28;20380;-65
2023/01/31 02:19:42;;;;;;;;;;;23.50;99.90;;;;;;5011531;28;20016;-61
2023/01/31 02:22:12;;;;;;;;;;;23.70;99.90;;;;;;5011707;28;19918;-62
2023/01/31 02:25:08;;;;;;;;;;;23.70;99.90;;;;;;5011453;28;19924;-66
2023/01/31 02:27:43;;;;;;;;;;;23.80;99.90;;;;;;5002391;28;19921;-67
2023/01/31 02:30:24;;;;;;;;;;;24.00;99.90;;;;;;5011685;28;19960;-61
2023/01/31 02:32:51;;;;;;;;;;;24.30;99.90;;;;;;5012134;28;19909;-62
2023/01/31 02:35:35;;;;;;;;;;;24.60;99.90;;;;;;5011203;28;19928;-62
2023/01/31 02:38:08;;;;;;;;;;;24.90;99.90;;;;;;5011589;28;19913;-65
2023/01/31 02:40:39;;;;;;;;;;;25.00;99.90;;;;;;5011564;28;19910;-65
2023/01/31 02:43:23;;;;;;;;;;;24.90;99.90;;;;;;5011677;28;19914;-62
2023/01/31 02:46:11;;;;;;;;;;;24.70;99.90;;;;;;5011613;28;19913;-62
2023/01/31 02:48:37;;;;;;;;;;;24.50;99.90;;;;;;5011569;28;20701;-68
2023/01/31 02:51:04;;;;;;;;;;;24.40;99.90;;;;;;5011569;28;20052;-67
2023/01/31 02:53:36;;;;;;;;;;;24.50;99.90;;;;;;5011166;28;19922;-62
2023/01/31 02:56:16;;;;;;;;;;;24.60;99.90;;;;;;5011058;28;19936;-62
2023/01/31 02:58:55;;;;;;;;;;;24.70;99.90;;;;;;5011788;28;20326;-61
2023/01/31 03:01:24;;;;;;;;;;;25.00;99.90;;;;;;5011129;28;20296;-61
2023/01/31 03:03:51;;;;;;;;;;;25.20;99.90;;;;;;5011764;28;19910;-61
2023/01/31 03:06:27;;;;;;;;;;;25.20;99.90;;;;;;5015167;28;19931;-62
2023/01/31 03:09:20;;;;;;;;;;;25.20;99.90;;;;;;5014897;28;19996;-63
2023/01/31 03:12:05;;;;;;;;;;;25.30;99.90;;;;;;5014649;28;19920;-69
2023/01/31 03:14:49;;;;;;;;;;;25.20;99.90;;;;;;5014638;28;19917;-64
2023/01/31 03:17:31;;;;;;;;;;;25.10;99.90;;;;;;5014532;28;20438;-62
2023/01/31 03:19:58;;;;;;;;;;;25.00;99.90;;;;;;5014980;28;20001;-61
2023/01/31 03:22:27;;;;;;;;;;;25.00;99.90;;;;;;5014866;28;20004;-63
2023/01/31 03:24:54;;;;;;;;;;;25.20;99.90;;;;;;5014373;28;19916;-62
2023/01/31 03:27:21;;;;;;;;;;;25.40;99.90;;;;;;5014271;28;19909;-62
2023/01/31 03:29:48;;;;;;;;;;;25.50;99.90;;;;;;5014394;28;20004;-65
2023/01/31 03:32:22;;;;;;;;;;;25.60;99.90;;;;;;5014451;28;20394;-62
2023/01/31 03:34:50;;;;;;;;;;;25.40;99.90;;;;;;5014067;28;20313;-63
2023/01/31 03:37:22;;;;;;;;;;;25.40;99.90;;;;;;5013971;28;19975;-64
2023/01/31 03:39:54;;;;;;;;;;;25.50;99.90;;;;;;5014163;28;19960;-67
2023/01/31 03:42:21;;;;;;;;;;;25.60;99.90;;;;;;5013941;28;19956;-67
2023/01/31 03:44:57;;;;;;;;;;;25.60;99.90;;;;;;5013903;28;19952;-62
2023/01/31 03:47:52;;;;;;;;;;;25.70;99.90;;;;;;5013628;28;20371;-62
2023/01/31 03:50:19;;;;;;;;;;;25.80;99.90;;;;;;5005113;28;20280;-68
2023/01/31 03:52:56;;;;;;;;;;;26.00;99.90;;;;;;5014097;28;20372;-65
2023/01/31 03:55:36;;;;;;;;;;;26.00;99.90;;;;;;5013416;28;19954;-63
2023/01/31 03:58:04;;;;;;;;;;;25.90;99.90;;;;;;5013458;28;19951;-63
2023/01/31 04:00:33;;;;;;;;;;;25.60;99.90;;;;;;5013550;28;19940;-61
2023/01/31 04:03:07;;;;;;;;;;;25.50;99.90;;;;;;5013543;28;19921;-62
2023/01/31 04:05:33;;;;;;;;;;;25.50;99.90;;;;;;5013492;28;20434;-63
2023/01/31 04:08:00;;;;;;;;;;;25.40;99.90;;;;;;5028834;28;20459;-68
2023/01/31 04:10:27;;;;;;;;;;;25.50;99.90;;;;;;5013209;28;20304;-62
2023/01/31 04:12:53;;;;;;;;;;;25.50;99.90;;;;;;5013532;28;19917;-62
2023/01/31 04:15:20;;;;;;;;;;;25.70;99.90;;;;;;5011929;28;19922;-67
2023/01/31 04:17:47;;;;;;;;;;;25.60;99.90;;;;;;5013297;28;20004;-67
2023/01/31 04:20:15;;;;;;;;;;;25.80;99.90;;;;;;5013370;28;19964;-68
2023/01/31 04:22:41;;;;;;;;;;;26.10;99.90;;;;;;5013353;28;19909;-66
2023/01/31 04:25:08;;;;;;;;;;;26.30;99.90;;;;;;5013117;28;19910;-62
2023/01/31 04:27:35;;;;;;;;;;;26.30;99.90;;;;;;5012848;28;19953;-66
2023/01/31 04:30:01;;;;;;;;;;;26.30;99.90;;;;;;5013057;28;19956;-62
2023/01/31 04:32:28;;;;;;;;;;;26.30;99.90;;;;;;5013082;28;19913;-68
2023/01/31 04:34:55;;;;;;;;;;;26.60;99.90;;;;;;5012463;28;19982;-65
2023/01/31 04:37:21;;;;;;;;;;;26.50;99.90;;;;;;5012849;28;19917;-65
2023/01/31 04:39:48;;;;;;;;;;;26.50;99.90;;;;;;5012900;28;20212;-61
2023/01/31 04:42:15;;;;;;;;;;;26.20;99.90;;;;;;5012902;28;20336;-63
2023/01/31 04:44:42;;;;;;;;;;;26.40;99.90;;;;;;5012494;28;19910;-62
2023/01/31 04:47:09;;;;;;;;;;;26.40;99.90;;;;;;5012626;28;19914;-64
2023/01/31 04:49:35;;;;;;;;;;;26.30;99.90;;;;;;5012540;28;20272;-62
2023/01/31 04:52:02;;;;;;;;;;;26.40;99.90;;;;;;5012501;28;19910;-62
2023/01/31 04:54:28;;;;;;;;;;;26.30;99.90;;;;;;5012195;28;19969;-62
2023/01/31 04:56:55;;;;;;;;;;;26.50;99.90;;;;;;5012703;28;19914;-63
2023/01/31 04:59:22;;;;;;;;;;;26.50;99.90;;;;;;5012520;28;19988;-62
2023/01/31 05:01:48;;;;;;;;;;;26.50;99.90;;;;;;5012352;28;19925;-62
2023/01/31 05:04:15;;;;;;;;;;;26.60;99.90;;;;;;5012361;28;19910;-68
2023/01/31 05:06:42;;;;;;;;;;;26.40;99.90;;;;;;5012616;28;19953;-68
2023/01/31 05:09:10;;;;;;;;;;;26.50;99.90;;;;;;5012817;28;19913;-64
2023/01/31 05:11:36;;;;;;;;;;;26.50;99.90;;;;;;5012174;28;19909;-66
2023/01/31 05:14:03;;;;;;;;;;;26.20;99.90;;;;;;5012298;28;19975;-70
2023/01/31 05:16:33;;;;;;;;;;;26.00;99.90;;;;;;5012454;28;20288;-61
2023/01/31 05:18:59;;;;;;;;;;;26.00;99.90;;;;;;5010610;28;19924;-61
2023/01/31 05:21:26;;;;;;;;;;;26.00;99.90;;;;;;5012246;28;20448;-62
2023/01/31 05:23:53;;;;;;;;;;;25.90;99.90;;;;;;5011831;28;19916;-62
2023/01/31 05:26:19;;;;;;;;;;;25.50;99.90;;;;;;5027107;28;20356;-64
2023/01/31 05:28:46;;;;;;;;;;;25.40;99.90;;;;;;5012120;28;19921;-62
2023/01/31 05:31:13;;;;;;;;;;;25.30;99.90;;;;;;5011824;28;19909;-63
2023/01/31 05:33:40;;;;;;;;;;;25.30;99.90;;;;;;5011782;28;19918;-62
2023/01/31 05:36:07;;;;;;;;;;;25.20;99.90;;;;;;5012035;28;19917;-63
2023/01/31 05:38:33;;;;;;;;;;;25.30;99.90;;;;;;5012174;28;19910;-62
2023/01/31 05:41:00;;;;;;;;;;;25.30;99.90;;;;;;5011843;28;19914;-62
2023/01/31 05:43:26;;;;;;;;;;;25.10;99.90;;;;;;5011473;28;20056;-62
2023/01/31 05:45:53;;;;;;;;;;;25.00;99.90;;;;;;5012158;28;19955;-61
2023/01/31 05:48:20;;;;;;;;;;;25.10;99.90;;;;;;5012079;28;19995;-63
2023/01/31 05:50:49;;;;;;;;;;;25.20;99.90;;;;;;5011329;28;19924;-61
2023/01/31 05:53:15;;;;;;;;;;;25.30;99.90;;;;;;5009586;28;19916;-63
2023/01/31 05:55:43;;;;;;;;;;;25.10;99.90;;;;;;5009837;28;20603;-62
2023/01/31 05:58:10;;;;;;;;;;;25.00;99.90;;;;;;5010142;28;20317;-62
2023/01/31 06:00:36;;;;;;;;;;;25.00;99.90;;;;;;5009674;28;19917;-61
2023/01/31 06:03:03;;;;;;;;;;;24.90;99.90;;;;;;5009706;28;20008;-61
2023/01/31 06:05:30;;;;;;;;;;;24.90;99.90;;;;;;5009557;28;19964;-62
2023/01/31 06:07:57;;;;;;;;;;;25.00;99.90;;;;;;5010126;28;19920;-62
2023/01/31 06:10:23;;;;;;;;;;;25.00;99.90;;;;;;5009172;28;20277;-61
2023/01/31 06:12:50;;;;;;;;;;;24.80;99.90;;;;;;5009571;28;20387;-65
2023/01/31 06:15:16;;;;;;;;;;;24.90;99.90;;;;;;5009385;28;19922;-64
2023/01/31 06:17:43;;;;;;;;;;;24.90;99.90;;;;;;4991614;28;19916;-64
2023/01/31 06:20:10;;;;;;;;;;;25.00;99.90;;;;;;5009286;28;19914;-66
2023/01/31 06:22:37;;;;;;;;;;;25.10;99.90;;;;;;5008939;28;19917;-62
2023/01/31 06:25:03;;;;;;;;;;;25.10;99.90;;;;;;5008855;28;19913;-66
2023/01/31 06:27:33;;;;;;;;;;;25.10;99.90;;;;;;5008991;28;19920;-63
2023/01/31 06:30:00;;;;;;;;;;;25.00;99.90;;;;;;5009592;28;20016;-64
2023/01/31 06:32:27;;;;;;;;;;;24.90;99.90;;;;;;5009318;28;20029;-63
2023/01/31 06:34:53;;;;;;;;;;;25.00;99.90;;;;;;5009420;28;19960;-68
2023/01/31 06:37:20;;;;;;;;;;;25.00;99.90;;;;;;5003242;28;19913;-66
2023/01/31 06:39:47;;;;;;;;;;;25.00;99.90;;;;;;5005095;28;19940;-66
2023/01/31 06:42:13;;;;;;;;;;;25.10;99.90;;;;;;5006784;28;20542;-66
2023/01/31 06:44:40;;;;;;;;;;;25.00;99.90;;;;;;5006251;28;20713;-65
2023/01/31 06:47:07;;;;;;;;;;;24.90;99.90;;;;;;5006299;28;19957;-65
2023/01/31 06:49:33;;;;;;;;;;;25.00;99.90;;;;;;5006170;28;19913;-62
2023/01/31 06:52:00;;;;;;;;;;;25.00;99.90;;;;;;5006636;28;19981;-64
2023/01/31 06:54:27;;;;;;;;;;;25.00;99.90;;;;;;5005996;28;20024;-63
2023/01/31 06:56:53;;;;;;;;;;;25.10;99.90;;;;;;5006320;28;19996;-66
2023/01/31 06:59:21;;;;;;;;;;;24.90;99.90;;;;;;5006206;28;20280;-64
2023/01/31 07:01:48;;;;;;;;;;;25.00;99.90;;;;;;4988099;28;19925;-65
2023/01/31 07:04:15;;;;;;;;;;;25.00;99.90;;;;;;5006368;28;19976;-67
2023/01/31 07:06:45;;;;;;;;;;;24.90;99.90;;;;;;5005672;28;20217;-67
2023/01/31 07:09:12;;;;;;;;;;;24.60;99.90;;;;;;5005860;28;19920;-63
2023/01/31 07:11:38;;;;;;;;;;;24.70;99.90;;;;;;5005820;28;19913;-64
2023/01/31 07:14:05;;;;;;;;;;;24.80;99.90;;;;;;5005574;28;20028;-63
2023/01/31 07:16:31;;;;;;;;;;;24.90;99.90;;;;;;5006343;28;19913;-62
2023/01/31 07:18:58;;;;;;;;;;;24.80;99.90;;;;;;5006126;28;19914;-65
2023/01/31 07:21:25;;;;;;;;;;;24.80;99.90;;;;;;5005621;28;19920;-65
2023/01/31 07:23:51;;;;;;;;;;;24.80;99.90;;;;;;5005461;28;20016;-68
2023/01/31 07:26:18;;;;;;;;;;;24.80;99.90;;;;;;5005811;28;20456;-63
2023/01/31 07:28:45;;;;;;;;;;;24.60;99.90;;;;;;5005952;28;20701;-63
2023/01/31 07:31:12;;;;;;;;;;;24.60;99.90;;;;;;5005520;28;19914;-63
2023/01/31 07:33:39;;;;;;;;;;;24.50;99.90;;;;;;5005500;28;20455;-61
2023/01/31 07:36:07;;;;;;;;;;;24.50;99.90;;;;;;5005549;28;19921;-64
2023/01/31 07:38:34;;;;;;;;;;;24.50;99.90;;;;;;5006592;28;20001;-63
2023/01/31 07:41:02;;;;;;;;;;;24.50;99.90;;;;;;5006155;28;20020;-63
2023/01/31 07:43:29;;;;;;;;;;;24.60;99.90;;;;;;5005757;28;20422;-63
2023/01/31 07:45:55;;;;;;;;;;;24.50;99.90;;;;;;5006507;28;19914;-61
2023/01/31 07:48:25;;;;;;;;;;;24.30;99.90;;;;;;5005876;28;19913;-65
2023/01/31 07:50:52;;;;;;;;;;;24.20;99.90;;;;;;5005614;28;19983;-67
2023/01/31 07:53:19;;;;;;;;;;;24.20;99.90;;;;;;5005380;28;19941;-62
2023/01/31 07:55:46;;;;;;;;;;;24.20;99.90;;;;;;5005666;28;20224;-62
2023/01/31 07:58:13;;;;;;;;;;;24.20;99.90;;;;;;5006357;28;19936;-63
2023/01/31 08:03:33;;;;;;;;;;;24.10;99.90;;;;;;5005274;28;19929;-62
2023/01/31 08:06:00;;;;;;;;;;;24.00;99.90;;;;;;5005803;28;19991;-64
2023/01/31 08:08:27;;;;;;;;;;;23.90;99.90;;;;;;5005801;28;19963;-64
2023/01/31 08:10:54;;;;;;;;;;;23.90;99.90;;;;;;5005217;28;19917;-61
2023/01/31 08:13:21;;;;;;;;;;;23.70;99.90;;;;;;5004988;28;19913;-64
2023/01/31 08:15:50;;;;;;;;;;;23.70;99.90;;;;;;5004994;28;19961;-62
2023/01/31 08:18:16;;;;;;;;;;;23.60;99.90;;;;;;5005659;28;19913;-63
2023/01/31 08:20:43;;;;;;;;;;;23.50;99.90;;;;;;5006860;28;19909;-63
2023/01/31 08:23:10;;;;;;;;;;;23.40;99.90;;;;;;5013048;28;20319;-62
2023/01/31 08:25:36;;;;;;;;;;;23.50;99.90;;;;;;5012857;28;19921;-62
2023/01/31 08:28:03;;;;;;;;;;;23.50;99.90;;;;;;5013333;28;20000;-64
2023/01/31 08:30:30;;;;;;;;;;;23.40;99.90;;;;;;5013329;28;20284;-66
2023/01/31 08:32:56;;;;;;;;;;;23.40;99.90;;;;;;5012865;28;19915;-63
2023/01/31 08:35:24;;;;;;;;;;;23.30;99.90;;;;;;5013503;28;19921;-62
2023/01/31 08:37:51;;;;;;;;;;;23.30;99.90;;;;;;5013826;28;19913;-66
2023/01/31 08:40:18;;;;;;;;;;;23.20;99.90;;;;;;5013478;28;19996;-63
2023/01/31 08:42:52;;;;;;;;;;;23.30;99.90;;;;;;5013362;28;19910;-66
2023/01/31 08:45:19;;;;;;;;;;;23.20;99.90;;;;;;5013233;28;20272;-63
2023/01/31 08:47:46;;;;;;;;;;;23.30;99.90;;;;;;5013777;28;20008;-63
2023/01/31 08:50:12;;;;;;;;;;;23.20;99.90;;;;;;5013110;28;20284;-67
2023/01/31 08:52:39;;;;;;;;;;;23.10;99.90;;;;;;5012524;28;20383;-62
2023/01/31 08:55:08;;;;;;;;;;;23.10;99.90;;;;;;5012581;28;20364;-62
2023/01/31 08:57:34;;;;;;;;;;;23.00;99.90;;;;;;5012618;28;20361;-61
2023/01/31 09:00:01;;;;;;;;;;;23.10;99.90;;;;;;5012498;28;20008;-62
2023/01/31 09:02:28;;;;;;;;;;;23.00;99.90;;;;;;5011933;28;20016;-63
2023/01/31 09:04:54;;;;;;;;;;;23.00;99.90;;;;;;5012113;28;20404;-63
2023/01/31 09:07:21;;;;;;;;;;;22.90;99.90;;;;;;5011880;28;20012;-65
2023/01/31 09:09:48;;;;;;;;;;;22.90;99.90;;;;;;5008863;28;19913;-63
2023/01/31 09:12:15;;;;;;;;;;;22.90;99.90;;;;;;5004617;28;19935;-63
2023/01/31 09:14:41;;;;;;;;;;;22.90;99.90;;;;;;5004499;28;20044;-63
2023/01/31 09:17:09;;;;;;;;;;;22.90;99.90;;;;;;5004698;28;20009;-62
2023/01/31 09:19:36;;;;;;;;;;;22.80;99.90;;;;;;5003897;28;19948;-62
2023/01/31 09:22:03;;;;;;;;;;;22.90;99.90;;;;;;5004224;28;19921;-65
2023/01/31 09:24:29;;;;;;;;;;;22.80;99.90;;;;;;5003770;28;19918;-63
2023/01/31 09:26:56;;;;;;;;;;;22.80;99.90;;;;;;5004834;28;19935;-66
2023/01/31 09:29:23;;;;;;;;;;;22.80;99.90;;;;;;5004428;28;19913;-65
2023/01/31 09:31:52;;;;;;;;;;;22.80;99.90;;;;;;5005296;28;19924;-63
2023/01/31 09:34:20;;;;;;;;;;;22.70;99.90;;;;;;5003512;28;19965;-63
2023/01/31 09:36:47;;;;;;;;;;;22.70;99.90;;;;;;5004167;28;19913;-62
2023/01/31 09:39:14;;;;;;;;;;;22.70;99.90;;;;;;5003928;28;19952;-65
2023/01/31 09:41:42;;;;;;;;;;;22.70;99.90;;;;;;5004655;28;19921;-62
2023/01/31 09:44:24;;;;;;;;;;;22.80;99.90;;;;;;5004114;28;20001;-62
2023/01/31 09:46:55;;;;;;;;;;;22.60;99.90;;;;;;5004484;28;19920;-62
2023/01/31 09:49:30;;;;;;;;;;;22.60;99.90;;;;;;5003510;28;19921;-64
2023/01/31 09:52:01;;;;;;;;;;;22.70;99.90;;;;;;5003779;28;19958;-62
2023/01/31 09:54:31;;;;;;;;;;;22.60;99.90;;;;;;5004467;28;19917;-62
2023/01/31 09:57:00;;;;;;;;;;;22.50;99.90;;;;;;5004579;28;20563;-66
2023/01/31 09:59:45;;;;;;;;;;;22.60;99.90;;;;;;5003765;28;19983;-64
2023/01/31 10:02:27;;;;;;;;;;;22.50;99.90;;;;;;5007514;28;20459;-63
2023/01/31 10:05:06;;;;;;;;;;;22.50;99.90;;;;;;5017006;28;19945;-62
2023/01/31 10:07:41;;;;;;;;;;;22.50;99.90;;;;;;5004193;28;20011;-64
2023/01/31 10:10:21;;;;;;;;;;;22.60;99.90;;;;;;5003788;28;20710;-63
2023/01/31 10:13:02;;;;;;;;;;;22.60;99.90;;;;;;5004798;28;20724;-65
2023/01/31 10:15:38;;;;;;;;;;;22.60;99.90;;;;;;5007634;28;19922;-63
2023/01/31 10:18:23;;;;;;;;;;;22.60;99.90;;;;;;5008336;28;20332;-62
2023/01/31 10:20:51;;;;;;;;;;;22.60;99.90;;;;;;5007980;28;19940;-64
2023/01/31 10:23:33;;;;;;;;;;;22.60;99.90;;;;;;5007379;28;20344;-62
2023/01/31 10:26:08;;;;;;;;;;;22.60;99.90;;;;;;5008259;28;20498;-63
2023/01/31 10:29:01;;;;;;;;;;;22.60;99.90;;;;;;5009113;28;19914;-62
2023/01/31 10:31:33;;;;;;;;;;;22.60;99.90;;;;;;5008124;28;20033;-63
2023/01/31 10:34:03;;;;;;;;;;;22.60;99.90;;;;;;5007664;28;19921;-62
2023/01/31 10:36:41;;;;;;;;;;;22.60;99.90;;;;;;5008680;28;19921;-61
2023/01/31 10:39:18;;;;;;;;;;;22.60;99.90;;;;;;5007851;28;20009;-62
2023/01/31 10:41:51;;;;;;;;;;;22.60;99.90;;;;;;4991637;28;19956;-63
2023/01/31 10:44:38;;;;;;;;;;;22.60;99.90;;;;;;5014687;28;19917;-63
2023/01/31 10:47:10;;;;;;;;;;;22.60;99.90;;;;;;4993266;28;20295;-62
2023/01/31 10:49:36;;;;;;;;;;;22.70;99.90;;;;;;5014285;28;20287;-63
2023/01/31 10:52:35;;;;;;;;;;;22.70;99.90;;;;;;5014988;28;20480;-63
2023/01/31 10:55:02;;;;;;;;;;;22.60;99.90;;;;;;4990632;28;19976;-63
2023/01/31 10:57:29;;;;;;;;;;;22.60;99.90;;;;;;5014022;28;19913;-62
2023/01/31 10:59:56;;;;;;;;;;;22.60;99.90;;;;;;5014066;28;20008;-62
2023/01/31 11:02:24;;;;;;;;;;;22.60;99.90;;;;;;5014951;28;19964;-64
2023/01/31 11:04:53;;;;;;;;;;;22.60;99.90;;;;;;5015867;28;19925;-61
2023/01/31 11:07:19;;;;;;;;;;;22.60;99.90;;;;;;5015366;28;19925;-64
2023/01/31 11:09:50;;;;;;;;;;;22.60;99.90;;;;;;5015266;28;19918;-61
2023/01/31 11:12:17;;;;;;;;;;;22.60;99.90;;;;;;5015105;28;19964;-62
2023/01/31 11:14:44;;;;;;;;;;;22.60;99.90;;;;;;5014937;28;19921;-61
2023/01/31 11:17:16;;;;;;;;;;;22.60;99.90;;;;;;5015497;28;19944;-63
2023/01/31 11:19:43;;;;;;;;;;;22.60;99.90;;;;;;5015177;28;20066;-62
2023/01/31 11:22:21;;;;;;;;;;;22.60;99.90;;;;;;5015741;28;20325;-62
2023/01/31 11:24:49;;;;;;;;;;;22.60;99.90;;;;;;5014655;28;19909;-62
2023/01/31 11:27:35;;;;;;;;;;;22.60;99.90;;;;;;5015013;28;19952;-63
2023/01/31 11:30:03;;;;;;;;;;;22.60;99.90;;;;;;5014776;28;20052;-62
2023/01/31 11:32:33;;;;;;;;;;;22.60;99.90;;;;;;5014595;28;19913;-61
2023/01/31 11:35:03;;;;;;;;;;;22.50;99.90;;;;;;5014596;28;19921;-61
2023/01/31 11:37:30;;;;;;;;;;;22.50;99.90;;;;;;5014253;28;19975;-61
2023/01/31 11:40:21;;;;;;;;;;;22.50;99.90;;;;;;5014700;28;19909;-62
2023/01/31 11:42:55;;;;;;;;;;;22.60;99.90;;;;;;5009269;28;19989;-61
2023/01/31 11:45:23;;;;;;;;;;;22.50;99.90;;;;;;5014329;28;19913;-61
2023/01/31 11:47:51;;;;;;;;;;;22.60;99.90;;;;;;5014507;28;19917;-61
2023/01/31 11:50:22;;;;;;;;;;;22.50;99.90;;;;;;5014530;28;19910;-61
2023/01/31 11:52:56;;;;;;;;;;;22.50;99.90;;;;;;5013980;28;20279;-62
2023/01/31 11:55:23;;;;;;;;;;;22.50;99.90;;;;;;5014090;28;20019;-62
2023/01/31 11:57:57;;;;;;;;;;;22.50;99.90;;;;;;5014368;28;19910;-63
2023/01/31 12:00:29;;;;;;;;;;;22.50;99.90;;;;;;5014028;28;19914;-61
2023/01/31 12:03:00;;;;;;;;;;;22.50;99.90;;;;;;5014066;28;19918;-61
2023/01/31 12:05:49;;;;;;;;;;;22.50;99.90;;;;;;5013974;28;19910;-61
2023/01/31 12:08:34;;;;;;;;;;;22.50;99.90;;;;;;5014145;28;19909;-62
2023/01/31 12:11:19;;;;;;;;;;;22.50;99.90;;;;;;5013943;28;20055;-61
2023/01/31 12:13:48;;;;;;;;;;;22.40;99.90;;;;;;5013677;28;19924;-62
2023/01/31 12:16:18;;;;;;;;;;;22.40;99.90;;;;;;5014055;28;20331;-62
2023/01/31 12:19:05;;;;;;;;;;;22.50;99.90;;;;;;5013864;28;20323;-61
2023/01/31 12:21:41;;;;;;;;;;;22.40;99.90;;;;;;5013613;28;19913;-63
2023/01/31 12:24:26;;;;;;;;;;;22.40;99.90;;;;;;5013468;28;19971;-62
2023/01/31 12:26:52;;;;;;;;;;;22.30;99.90;;;;;;5013926;28;19914;-62
2023/01/31 12:29:42;;;;;;;;;;;22.30;99.90;;;;;;5013666;28;19928;-61
2023/01/31 12:32:27;;;;;;;;;;;22.30;99.90;;;;;;5008347;28;19916;-62
2023/01/31 12:35:04;;;;;;;;;;;22.30;99.90;;;;;;5013713;28;19971;-63
2023/01/31 12:37:53;;;;;;;;;;;22.20;99.90;;;;;;5012593;28;19914;-61
2023/01/31 12:40:26;;;;;;;;;;;22.10;99.90;;;;;;5013535;28;20353;-62
2023/01/31 12:42:58;;;;;;;;;;;22.10;99.90;;;;;;5013242;28;20355;-62
2023/01/31 12:45:31;;;;;;;;;;;22.10;99.90;;;;;;5013607;28;20364;-62
2023/01/31 12:47:57;;;;;;;;;;;22.10;99.90;;;;;;5013509;28;19921;-61
2023/01/31 12:50:24;;;;;;;;;;;22.10;99.90;;;;;;5014691;28;19916;-63
2023/01/31 12:52:51;;;;;;;;;;;22.10;99.90;;;;;;5013501;28;19916;-61
2023/01/31 12:55:20;;;;;;;;;;;22.00;99.90;;;;;;5013482;28;19968;-60
2023/01/31 12:57:53;;;;;;;;;;;22.10;99.90;;;;;;5013725;28;19917;-60
2023/01/31 13:00:25;;;;;;;;;;;22.00;99.90;;;;;;5013553;28;19920;-61
2023/01/31 13:03:10;;;;;;;;;;;22.00;99.90;;;;;;5013036;28;19921;-65
2023/01/31 13:05:44;;;;;;;;;;;22.00;99.90;;;;;;5013904;28;19909;-62
2023/01/31 13:08:16;;;;;;;;;;;22.00;99.90;;;;;;5014287;28;19920;-61
2023/01/31 13:10:45;;;;;;;;;;;22.10;99.90;;;;;;5013939;28;19910;-61
2023/01/31 13:13:23;;;;;;;;;;;22.00;99.90;;;;;;5012845;28;19910;-62
2023/01/31 13:15:53;;;;;;;;;;;22.00;99.90;;;;;;5013615;28;19932;-66
2023/01/31 13:18:21;;;;;;;;;;;22.00;99.90;;;;;;5012766;28;19960;-64
2023/01/31 13:20:58;;;;;;;;;;;22.00;99.90;;;;;;5012668;28;19920;-61
2023/01/31 13:23:30;;;;;;;;;;;21.90;99.90;;;;;;5013188;28;19920;-67
2023/01/31 13:26:17;;;;;;;;;;;21.90;99.90;;;;;;5015126;28;20307;-66
2023/01/31 13:29:02;;;;;;;;;;;21.90;99.90;;;;;;5016628;28;19976;-66
2023/01/31 13:31:35;;;;;;;;;;;21.90;99.90;;;;;;5013566;28;19909;-62
2023/01/31 13:34:18;;;;;;;;;;;21.90;99.90;;;;;;5012161;28;19916;-63
2023/01/31 13:36:47;;;;;;;;;;;21.90;99.90;;;;;;5012331;28;19917;-66
2023/01/31 13:39:25;;;;;;;;;;;21.80;99.90;;;;;;5012442;28;19909;-63
2023/01/31 13:41:52;;;;;;;;;;;21.80;99.90;;;;;;5012675;28;19963;-63
2023/01/31 13:44:19;;;;;;;;;;;21.90;99.90;;;;;;5012439;28;19936;-62
2023/01/31 13:47:04;;;;;;;;;;;21.80;99.90;;;;;;5012473;28;19968;-67
2023/01/31 13:49:46;;;;;;;;;;;21.80;99.90;;;;;;5012216;28;20339;-64
2023/01/31 13:52:25;;;;;;;;;;;21.70;99.90;;;;;;5011812;28;19948;-62
2023/01/31 13:55:11;;;;;;;;;;;21.70;99.90;;;;;;5012396;28;19917;-63
2023/01/31 13:57:46;;;;;;;;;;;21.70;99.90;;;;;;5005771;28;19913;-65
2023/01/31 14:00:31;;;;;;;;;;;21.70;99.90;;;;;;5012373;28;19909;-62
2023/01/31 14:03:00;;;;;;;;;;;21.70;99.90;;;;;;5012329;28;19921;-60
2023/01/31 14:05:47;;;;;;;;;;;21.50;99.90;;;;;;5012128;28;20360;-61
2023/01/31 14:08:26;;;;;;;;;;;21.50;99.90;;;;;;5012274;28;19979;-62
2023/01/31 14:10:54;;;;;;;;;;;21.50;99.90;;;;;;5012281;28;19936;-62
2023/01/31 14:13:26;;;;;;;;;;;21.50;99.90;;;;;;5011600;28;19909;-61
2023/01/31 14:15:54;;;;;;;;;;;21.50;99.90;;;;;;5012261;28;19976;-60
2023/01/31 14:18:36;;;;;;;;;;;21.50;99.90;;;;;;5012102;28;19910;-61
2023/01/31 14:21:21;;;;;;;;;;;21.50;99.90;;;;;;5012307;28;19963;-60
2023/01/31 14:23:47;;;;;;;;;;;21.50;99.90;;;;;;5011645;28;19921;-61
2023/01/31 14:26:32;;;;;;;;;;;21.40;99.90;;;;;;5011939;28;19953;-62
2023/01/31 14:28:59;;;;;;;;;;;21.40;99.90;;;;;;5012043;28;19967;-61
2023/01/31 14:31:26;;;;;;;;;;;21.40;99.90;;;;;;4994337;28;20000;-61
2023/01/31 14:33:56;;;;;;;;;;;21.40;99.90;;;;;;5011664;28;20454;-61
2023/01/31 14:36:40;;;;;;;;;;;21.30;99.90;;;;;;5011753;28;20004;-62
2023/01/31 14:39:19;;;;;;;;;;;21.30;99.90;;;;;;5011754;28;20380;-61